Time;durP1;ratioP1;P1;durP2;ratioP2;P2;SDS_P1;SDS_P2;PMS_P1;PMS_P2;Temp;Humidity;BMP_temperature;BMP_pressure;BME280_temperature;BME280_humidity;BME280_pressure;Samples;Min_cycle;Max_cycle;Signal;HPM_P1;HPM_P2
2023/05/23 00:05:16;;;;;;;16.30;9.93;;;;;;;;;;20906871;28;20223;-83
2023/05/23 00:15:18;;;;;;;13.40;9.10;;;;;;;;;;20872576;28;20289;-83
2023/05/23 00:25:20;;;;;;;13.40;9.02;;;;;;;;;;20884942;28;20248;-81
2023/05/23 00:35:22;;;;;;;9.20;6.90;;;;;;;;;;20862954;28;20279;-81
2023/05/23 00:45:24;;;;;;;10.50;7.50;;;;;;;;;;20862132;28;20272;-83
2023/05/23 00:55:26;;;;;;;8.13;6.30;;;20.50;99.90;;;;;;20876457;28;20619;-82
2023/05/23 01:05:28;;;;;;;8.63;5.87;;;;;;;;;;20891725;28;20281;-83
2023/05/23 01:15:38;;;;;;;7.50;6.07;;;21.00;99.90;;;;;;20860679;28;20213;-83
2023/05/23 01:26:02;;;;;;;7.33;6.00;;;21.00;99.90;;;;;;20874800;28;20224;-82
2023/05/23 01:36:05;;;;;;;8.17;6.67;;;21.00;99.90;;;;;;20915181;28;20191;-81
2023/05/23 01:46:07;;;;;;;9.60;6.50;;;;;;;;;;20890172;28;20227;-81
2023/05/23 01:56:09;;;;;;;8.07;7.10;;;;;;;;;;20857169;28;20204;-81
2023/05/23 02:06:10;;;;;;;8.53;6.77;;;;;;;;;;20854960;28;20261;-81
2023/05/23 02:16:12;;;;;;;7.87;6.87;;;;;;;;;;20856604;28;20275;-81
2023/05/23 02:26:15;;;;;;;11.03;6.60;;;;;;;;;;20866875;28;20233;-81
2023/05/23 02:36:18;;;;;;;6.93;6.20;;;;;;;;;;20952867;28;20203;-81
2023/05/23 02:46:20;;;;;;;6.53;5.53;;;;;;;;;;20937961;28;20790;-81
2023/05/23 02:56:23;;;;;;;8.23;5.73;;;;;;;;;;20873075;28;20259;-82
2023/05/23 03:06:26;;;;;;;6.23;5.50;;;;;;;;;;20897749;28;20924;-82
2023/05/23 03:16:28;;;;;;;6.63;5.43;;;;;;;;;;20896039;28;20252;-81
2023/05/23 03:26:29;;;;;;;7.00;5.53;;;;;;;;;;20859726;28;20300;-81
2023/05/23 03:36:38;;;;;;;6.80;5.30;;;;;;;;;;20921308;28;20230;-81
2023/05/23 03:46:40;;;;;;;7.07;5.47;;;;;;;;;;20913152;28;20258;-81
2023/05/23 03:56:42;;;;;;;7.27;5.47;;;;;;;;;;20865244;28;20221;-81
2023/05/23 04:06:44;;;;;;;8.60;5.37;;;;;;;;;;20882140;28;20245;-81
2023/05/23 04:16:47;;;;;;;7.17;4.57;;;;;;;;;;20864278;28;20217;-81
2023/05/23 04:26:49;;;;;;;5.87;4.73;;;;;;;;;;20882471;28;20300;-82
2023/05/23 04:36:52;;;;;;;4.47;4.00;;;;;;;;;;20863402;28;20204;-81
2023/05/23 04:46:55;;;;;;;5.70;4.20;;;;;;;;;;20925282;28;20708;-83
2023/05/23 04:57:02;;;;;;;4.23;3.70;;;;;;;;;;20865450;28;20301;-82
2023/05/23 05:07:05;;;;;;;4.30;3.47;;;;;;;;;;20862821;28;20227;-83
2023/05/23 05:17:07;;;;;;;4.47;3.40;;;;;;;;;;20896642;28;20221;-82
2023/05/23 05:27:21;;;;;;;4.27;3.17;;;;;;;;;;20880750;28;20232;-83
2023/05/23 05:37:23;;;;;;;4.93;3.37;;;;;;;;;;20866216;28;20280;-82
2023/05/23 05:47:25;;;;;;;3.07;2.57;;;;;;;;;;20933276;28;20284;-83
2023/05/23 05:57:28;;;;;;;3.90;3.10;;;;;;;;;;20921467;28;20291;-82
2023/05/23 06:07:30;;;;;;;6.17;3.30;;;;;;;;;;20892307;28;20236;-82
2023/05/23 06:17:32;;;;;;;4.90;3.47;;;;;;;;;;20873488;28;20419;-82
2023/05/23 06:27:34;;;;;;;4.30;3.63;;;;;;;;;;20911193;28;20301;-83
2023/05/23 06:37:39;;;;;;;5.33;4.10;;;;;;;;;;20854180;28;20302;-83
2023/05/23 06:47:42;;;;;;;6.30;3.93;;;;;;;;;;20929448;28;20263;-83
2023/05/23 06:57:44;;;;;;;6.70;3.60;;;20.10;99.90;;;;;;20885996;28;20216;-83
2023/05/23 07:07:47;;;;;;;4.97;3.63;;;;;;;;;;20886379;28;20781;-83
2023/05/23 07:17:49;;;;;;;3.97;2.83;;;;;;;;;;20886237;28;20220;-82
2023/05/23 07:27:53;;;;;;;4.80;1.90;;;;;;;;;;20886875;28;20232;-82
2023/05/23 07:37:56;;;;;;;1.90;1.23;;;;;;;;;;20882784;28;20285;-82
2023/05/23 07:47:58;;;;;;;2.37;1.40;;;;;;;;;;20880264;28;20241;-82
2023/05/23 07:58:01;;;;;;;3.33;1.70;;;;;;;;;;20852501;28;20221;-82
2023/05/23 08:08:03;;;;;;;1.53;1.23;;;;;;;;;;20953182;28;20243;-82
2023/05/23 08:18:06;;;;;;;2.70;1.20;;;;;;;;;;20964944;28;20676;-82
2023/05/23 08:28:07;;;;;;;1.70;1.10;;;;;;;;;;20962813;28;20231;-82
2023/05/23 08:38:17;;;;;;;1.80;0.97;;;;;;;;;;20963304;28;20217;-83
2023/05/23 08:48:31;;;;;;;1.40;0.83;;;;;;;;;;20960681;28;20272;-81
2023/05/23 08:58:34;;;;;;;0.97;0.70;;;21.20;99.90;;;;;;20923052;28;20262;-81
2023/05/23 09:08:37;;;;;;;0.93;0.77;;;;;;;;;;20822118;28;20715;-82
2023/05/23 09:18:40;;;;;;;0.97;0.60;;;22.30;99.90;;;;;;20778936;28;20200;-82
2023/05/23 09:28:44;;;;;;;1.43;0.90;;;;;;;;;;20810302;28;20709;-82
2023/05/23 09:38:51;;;;;;;1.17;0.70;;;;;;;;;;20800106;28;20272;-82
2023/05/23 09:48:54;;;;;;;2.13;0.80;;;;;;;;;;20809195;28;20232;-82
2023/05/23 09:59:00;;;;;;;4.53;0.98;;;;;;;;;;20806455;28;20275;-82
2023/05/23 10:09:03;;;;;;;0.82;0.63;;;;;;;;;;20887798;28;20223;-81
2023/05/23 10:19:45;;;;;;;1.23;0.80;;;22.00;99.90;;;;;;20880452;28;20704;-81
2023/05/23 10:29:47;;;;;;;1.00;0.80;;;21.60;99.90;;;;;;20937175;28;20262;-82
2023/05/23 10:39:59;;;;;;;1.67;0.80;;;;;;;;;;20921224;28;20267;-82
2023/05/23 10:50:00;;;;;;;3.43;0.97;;;;;;;;;;20944725;28;20223;-82
2023/05/23 11:00:03;;;;;;;1.03;0.73;;;;;;;;;;20885590;28;20564;-82
2023/05/23 11:10:05;;;;;;;1.13;0.80;;;;;;;;;;20915738;28;20257;-82
2023/05/23 11:20:12;;;;;;;1.10;0.83;;;22.10;99.90;;;;;;20874065;28;20253;-82
2023/05/23 11:30:14;;;;;;;1.70;1.20;;;;;;;;;;20899271;28;20219;-82
2023/05/23 11:40:39;;;;;;;1.83;1.20;;;21.90;99.90;;;;;;20881092;28;20240;-83
2023/05/23 11:50:49;;;;;;;1.30;1.03;;;22.40;99.90;;;;;;20901044;28;20226;-82
2023/05/23 12:00:51;;;;;;;1.88;1.08;;;;;;;;;;20904104;28;20215;-82
2023/05/23 12:11:00;;;;;;;2.78;1.40;;;;;;;;;;20914633;28;20235;-82
2023/05/23 12:21:06;;;;;;;1.77;1.25;;;23.60;99.90;;;;;;20896249;28;20214;-83
2023/05/23 12:31:12;;;;;;;1.70;1.08;;;23.70;99.90;;;;;;20913344;28;20238;-82
2023/05/23 12:41:21;;;;;;;2.78;1.60;;;;;;;;;;20895810;28;20282;-83
2023/05/23 12:51:22;;;;;;;2.63;1.73;;;;;;;;;;20939961;28;20285;-83
2023/05/23 13:01:24;;;;;;;2.80;1.58;;;;;;;;;;20910514;28;20265;-83
2023/05/23 13:11:26;;;;;;;2.22;1.50;;;;;;;;;;20910983;28;20277;-83
2023/05/23 13:21:28;;;;;;;2.55;1.40;;;;;;;;;;20898321;28;20742;-83
2023/05/23 13:31:30;;;;;;;2.20;1.55;;;;;;;;;;20992883;28;20295;-83
2023/05/23 13:41:32;;;;;;;2.30;1.70;;;;;;;;;;20991427;28;20271;-84
2023/05/23 13:51:36;;;;;;;2.67;1.85;;;;;;;;;;20962540;28;20285;-83
2023/05/23 14:01:38;;;;;;;2.40;1.27;;;;;;;;;;20971750;28;20217;-83
2023/05/23 14:11:40;;;;;;;3.13;1.27;;;;;;;;;;20971252;28;20233;-83
2023/05/23 14:21:42;;;;;;;2.10;1.58;;;;;;;;;;20997799;28;20225;-83
2023/05/23 14:31:44;;;;;;;2.40;1.90;;;;;;;;;;20882399;28;20242;-83
2023/05/23 14:41:45;;;;;;;1.98;1.55;;;;;;;;;;20883755;28;20270;-83
2023/05/23 14:51:47;;;;;;;2.58;1.85;;;;;;;;;;20884726;28;20232;-82
2023/05/23 15:01:49;;;;;;;2.70;2.03;;;;;;;;;;20950611;28;20740;-85
2023/05/23 15:11:51;;;;;;;3.78;1.80;;;;;;;;;;20962245;28;20227;-82
2023/05/23 15:21:53;;;;;;;3.20;1.85;;;;;;;;;;20900139;28;20279;-82
2023/05/23 15:31:55;;;;;;;4.60;2.17;;;;;;;;;;20900236;28;20284;-82
2023/05/23 15:41:57;;;;;;;2.20;1.40;;;;;;;;;;20894591;28;20237;-82
2023/05/23 15:51:58;;;;;;;2.28;1.60;;;;;;;;;;20926365;28;20228;-82
2023/05/23 16:02:03;;;;;;;4.15;2.25;;;;;;;;;;20944873;28;20218;-82
2023/05/23 16:12:05;;;;;;;5.20;2.50;;;;;;;;;;20932810;28;20298;-81
2023/05/23 16:22:07;;;;;;;2.58;2.05;;;;;;;;;;20926542;28;20288;-82
2023/05/23 16:32:09;;;;;;;3.10;2.38;;;;;;;;;;20878128;28;20299;-82
2023/05/23 16:42:11;;;;;;;4.03;2.65;;;;;;;;;;20906799;28;20935;-82
2023/05/23 16:52:13;;;;;;;2.92;2.25;;;;;;;;;;20972703;28;20231;-82
2023/05/23 17:02:15;;;;;;;3.33;2.63;;;;;;;;;;20969829;28;20228;-82
2023/05/23 17:12:16;;;;;;;3.72;2.53;;;;;;;;;;20931056;28;20266;-82
2023/05/23 17:22:18;;;;;;;4.38;2.50;;;;;;;;;;20967242;28;20279;-82
2023/05/23 17:32:20;;;;;;;3.03;2.55;;;;;;;;;;20969129;28;20238;-82
2023/05/23 17:42:21;;;;;;;3.33;1.88;;;;;;;;;;20986676;28;20213;-82
2023/05/23 17:52:23;;;;;;;3.35;2.10;;;;;;;;;;20884210;28;20235;-81
2023/05/23 18:02:26;;;;;;;2.33;2.03;;;;;;;;;;20853346;28;20695;-82
2023/05/23 18:12:28;;;;;;;3.75;2.60;;;;;;;;;;20867598;28;20261;-82
2023/05/23 18:22:32;;;;;;;3.45;1.85;;;;;;;;;;20875827;28;20221;-81
2023/05/23 18:32:34;;;;;;;2.95;1.88;;;;;;;;;;20895522;28;20609;-82
2023/05/23 18:42:36;;;;;;;2.35;1.80;;;;;;;;;;20902591;28;20238;-82
2023/05/23 18:52:37;;;;;;;2.17;1.52;;;;;;;;;;20943106;28;20692;-82
2023/05/23 19:02:42;;;;;;;4.38;1.60;;;;;;;;;;20962910;28;20261;-82
2023/05/23 19:12:44;;;;;;;2.33;1.30;;;;;;;;;;20915918;28;20224;-82
2023/05/23 19:22:46;;;;;;;2.63;1.50;;;20.40;99.90;;;;;;20909460;28;20232;-82
2023/05/23 19:32:48;;;;;;;1.70;1.13;;;;;;;;;;20978638;28;20229;-83
2023/05/23 19:42:50;;;;;;;2.33;1.17;;;;;;;;;;20947537;28;20817;-85
2023/05/23 19:52:52;;;;;;;1.67;1.07;;;;;;;;;;20901941;28;20224;-81
2023/05/23 20:02:55;;;;;;;1.77;1.10;;;;;;;;;;20903570;28;20255;-81
2023/05/23 20:12:57;;;;;;;1.63;0.90;;;;;;;;;;20891808;28;20841;-82
2023/05/23 20:22:59;;;;;;;3.10;1.10;;;;;;;;;;20924623;28;20270;-82
2023/05/23 20:33:00;;;;;;;1.27;0.90;;;;;;;;;;20918514;28;20246;-82
2023/05/23 20:43:04;;;;;;;1.60;1.00;;;;;;;;;;20958258;28;20226;-84
2023/05/23 20:53:06;;;;;;;1.50;0.90;;;;;;;;;;20923401;28;20231;-82
2023/05/23 21:03:08;;;;;;;2.17;1.10;;;;;;;;;;20948815;28;20229;-81
2023/05/23 21:13:09;;;;;;;1.50;1.00;;;;;;;;;;20927680;28;20240;-82
2023/05/23 21:23:11;;;;;;;1.83;1.20;;;;;;;;;;20886309;28;20224;-84
2023/05/23 21:33:13;;;;;;;1.90;1.27;;;;;;;;;;20934915;28;20231;-83
2023/05/23 21:43:14;;;;;;;1.93;1.30;;;;;;;;;;20966282;28;20221;-83
2023/05/23 21:53:17;;;;;;;3.30;1.40;;;;;;;;;;20950433;28;20285;-83
2023/05/23 22:03:19;;;;;;;2.50;1.40;;;;;;;;;;20928482;28;20220;-83
2023/05/23 22:13:20;;;;;;;1.97;1.20;;;;;;;;;;20917155;28;20235;-82
2023/05/23 22:23:22;;;;;;;2.40;1.30;;;;;;;;;;20825139;28;20559;-83
2023/05/23 22:33:24;;;;;;;2.37;1.20;;;;;;;;;;20890389;28;20284;-83
2023/05/23 22:43:27;;;;;;;1.53;1.10;;;;;;;;;;20934501;28;20630;-83
2023/05/23 22:53:29;;;;;;;2.03;1.30;;;;;;;;;;20889887;28;20218;-84
2023/05/23 23:03:31;;;;;;;4.00;1.40;;;;;;;;;;20938443;28;20222;-83
2023/05/23 23:13:33;;;;;;;5.33;1.57;;;;;;;;;;20922159;28;20215;-83
2023/05/23 23:23:35;;;;;;;3.13;1.33;;;;;;;;;;20952860;28;20805;-83
2023/05/23 23:33:37;;;;;;;1.80;1.17;;;;;;;;;;20973490;28;20238;-82
2023/05/23 23:43:39;;;;;;;3.07;1.33;;;;;;;;;;20963727;28;20287;-82
2023/05/23 23:53:41;;;;;;;2.57;1.37;;;;;;;;;;20931344;28;20250;-83
